Time;durP1;ratioP1;P1;durP2;ratioP2;P2;SDS_P1;SDS_P2;PMS_P1;PMS_P2;Temp;Humidity;BMP_temperature;BMP_pressure;BME280_temperature;BME280_humidity;BME280_pressure;Samples;Min_cycle;Max_cycle;Signal;HPM_P1;HPM_P2
2022/01/25 00:15:28;;;;;;;100.85;53.00;;;0.50;90.10;;;;;;5052961;28;20063;-73
2022/01/25 00:26:23;;;;;;;94.40;51.07;;;0.40;90.30;;;;;;5054888;28;20439;-72
2022/01/25 00:29:05;;;;;;;95.55;52.70;;;0.40;90.30;;;;;;5053423;28;20499;-72
2022/01/25 00:31:33;;;;;;;94.32;50.42;;;0.40;90.30;;;;;;5054029;28;20029;-73
2022/01/25 00:33:59;;;;;;;103.72;52.47;;;0.30;90.30;;;;;;5054847;28;20036;-73
2022/01/25 00:36:26;;;;;;;102.43;53.67;;;0.30;90.40;;;;;;5053479;28;20556;-72
2022/01/25 00:38:53;;;;;;;99.75;52.40;;;0.30;90.40;;;;;;5055507;28;20041;-72
2022/01/25 00:41:20;;;;;;;97.40;51.38;;;0.30;90.50;;;;;;5055558;28;20024;-71
2022/01/25 00:43:46;;;;;;;94.78;52.15;;;0.30;90.50;;;;;;5057464;28;20060;-72
2022/01/25 00:46:13;;;;;;;91.03;50.72;;;0.30;90.40;;;;;;5051799;28;20143;-71
2022/01/25 00:48:44;;;;;;;92.28;49.90;;;0.20;90.50;;;;;;5055629;28;20535;-72
2022/01/25 00:54:00;;;;;;;98.30;51.17;;;0.20;90.40;;;;;;5055468;28;20060;-72
2022/01/25 00:56:33;;;;;;;100.38;52.30;;;0.20;90.50;;;;;;5052954;28;20055;-72
2022/01/25 00:59:00;;;;;;;94.20;50.20;;;0.20;90.50;;;;;;5053600;28;20037;-71
2022/01/25 01:01:26;;;;;;;100.50;51.67;;;0.20;90.50;;;;;;5054276;28;20498;-71
2022/01/25 01:03:53;;;;;;;98.20;50.45;;;0.20;90.60;;;;;;5056552;28;20036;-73
2022/01/25 01:06:18;;;;;;;90.20;48.67;;;0.20;90.60;;;;;;5051274;28;20062;-72
2022/01/25 01:08:44;;;;;;;94.70;50.97;;;0.20;90.60;;;;;;5055841;28;20272;-73
2022/01/25 01:11:16;;;;;;;97.68;50.70;;;0.20;90.60;;;;;;5054776;28;20029;-73
2022/01/25 01:16:41;;;;;;;93.07;50.00;;;0.10;90.60;;;;;;5052298;28;20769;-72
2022/01/25 01:30:31;;;;;;;94.05;52.53;;;0.10;90.40;;;;;;5047076;28;20094;-72
2022/01/25 01:43:27;;;;;;;93.07;51.60;;;0.00;90.40;;;;;;5047719;28;20058;-72
2022/01/25 01:48:11;;;;;;;97.82;49.90;;;0.00;90.40;;;;;;5047120;28;20124;-72
2022/01/25 01:50:38;;;;;;;97.70;49.97;;;0.00;90.40;;;;;;5048658;28;20033;-72
2022/01/25 01:53:07;;;;;;;90.65;49.28;;;-3276.70;90.40;;;;;;5044402;28;20136;-72
2022/01/25 01:55:34;;;;;;;91.97;50.85;;;-3276.70;90.40;;;;;;5049208;28;20044;-72
2022/01/25 01:58:00;;;;;;;101.32;51.47;;;-3276.70;90.40;;;;;;5043328;28;20110;-72
2022/01/25 02:00:42;;;;;;;95.00;51.38;;;0.00;90.40;;;;;;5050189;28;20033;-71
2022/01/25 02:03:08;;;;;;;94.93;50.17;;;0.00;90.50;;;;;;5048874;28;20067;-71
2022/01/25 02:05:34;;;;;;;92.28;50.97;;;-3276.70;90.50;;;;;;5034650;28;20418;-71
2022/01/25 02:08:00;;;;;;;90.90;47.42;;;-3276.70;90.40;;;;;;5052286;28;20480;-72
2022/01/25 02:10:27;;;;;;;94.78;50.38;;;-3276.70;90.40;;;;;;5036480;28;20035;-71
2022/01/25 02:12:53;;;;;;;94.43;51.58;;;-3276.70;90.40;;;;;;5048425;28;20049;-72
2022/01/25 02:15:21;;;;;;;90.97;49.60;;;-3276.70;90.30;;;;;;5054899;28;20047;-72
2022/01/25 02:23:22;;;;;;;94.57;50.08;;;-3276.60;90.40;;;;;;5058619;28;20039;-72
2022/01/25 02:25:53;;;;;;;96.00;51.33;;;-3276.60;90.40;;;;;;5057150;28;20086;-72
2022/01/25 02:28:19;;;;;;;94.57;49.60;;;-3276.60;90.50;;;;;;5054127;28;20048;-72
2022/01/25 02:30:46;;;;;;;94.47;51.22;;;-3276.50;90.50;;;;;;5057134;28;20719;-72
2022/01/25 02:33:12;;;;;;;99.43;51.65;;;-3276.60;90.50;;;;;;5036603;28;20110;-72
2022/01/25 02:35:40;;;;;;;99.35;52.95;;;-3276.60;90.50;;;;;;5056546;28;20467;-72
2022/01/25 02:38:07;;;;;;;94.13;49.03;;;-3276.60;90.50;;;;;;5052996;28;20033;-72
2022/01/25 02:40:33;;;;;;;93.95;49.53;;;-3276.60;90.50;;;;;;5057326;28;20040;-72
2022/01/25 02:42:59;;;;;;;97.22;52.35;;;-3276.70;90.50;;;;;;5057652;28;20553;-71
2022/01/25 02:45:32;;;;;;;92.65;50.08;;;-3276.60;90.40;;;;;;5058767;28;20040;-73
2022/01/25 02:50:43;;;;;;;93.93;50.10;;;-3276.60;90.20;;;;;;5055846;28;20175;-72
2022/01/25 02:53:09;;;;;;;93.22;49.55;;;-3276.50;90.20;;;;;;5054364;28;20052;-71
2022/01/25 02:55:35;;;;;;;98.10;50.70;;;-3276.50;90.20;;;;;;5058609;28;20036;-71
2022/01/25 02:58:01;;;;;;;96.75;49.60;;;-3276.50;90.20;;;;;;5055680;28;20056;-72
2022/01/25 03:00:27;;;;;;;94.63;50.30;;;-3276.50;90.30;;;;;;5055255;28;20560;-71
2022/01/25 03:02:52;;;;;;;93.00;48.90;;;-3276.50;90.30;;;;;;5060918;28;20486;-71
2022/01/25 03:05:18;;;;;;;97.55;47.78;;;-3276.50;90.20;;;;;;5056710;28;21189;-72
2022/01/25 03:07:45;;;;;;;95.50;50.45;;;-3276.40;90.30;;;;;;5057234;28;20102;-72
2022/01/25 03:10:12;;;;;;;97.85;49.92;;;-3276.50;90.30;;;;;;5056461;28;20470;-71
2022/01/25 03:12:44;;;;;;;94.10;47.20;;;-3276.40;90.30;;;;;;5057391;28;20031;-71
2022/01/25 03:15:54;;;;;;;92.43;50.58;;;-3276.40;90.30;;;;;;5058474;28;20187;-72
2022/01/25 03:18:01;;;;;;;96.07;48.33;;;-3276.40;90.40;;;;;;5055991;28;20032;-71
2022/01/25 03:23:21;;;;;;;94.82;50.45;;;-3276.30;90.40;;;;;;5057026;28;20071;-70
2022/01/25 03:25:49;;;;;;;93.78;50.05;;;-3276.30;90.50;;;;;;5071220;28;20351;-70
2022/01/25 03:28:16;;;;;;;101.72;52.65;;;-3276.30;90.50;;;;;;5056679;28;20043;-72
2022/01/25 03:30:41;;;;;;;97.57;51.10;;;-3276.30;90.60;;;;;;5058045;28;20055;-71
2022/01/25 03:33:07;;;;;;;95.00;49.92;;;-3276.40;90.60;;;;;;5054327;28;20468;-70
2022/01/25 03:35:33;;;;;;;92.95;48.10;;;-3276.40;90.60;;;;;;5039590;28;20039;-71
2022/01/25 03:37:59;;;;;;;92.97;50.33;;;-3276.30;90.60;;;;;;5058169;28;20388;-70
2022/01/25 03:40:25;;;;;;;92.60;48.55;;;-3276.30;90.60;;;;;;5055615;28;20036;-71
2022/01/25 03:42:50;;;;;;;101.43;49.60;;;-3276.30;90.70;;;;;;5038177;28;20119;-71
2022/01/25 03:45:21;;;;;;;94.90;48.90;;;-3276.30;90.70;;;;;;5057616;28;20071;-71
2022/01/25 03:50:31;;;;;;;95.03;50.07;;;-3276.30;90.70;;;;;;5057406;28;20090;-72
2022/01/25 03:52:57;;;;;;;94.53;50.25;;;-3276.30;90.60;;;;;;5056424;28;20036;-71
2022/01/25 03:55:22;;;;;;;93.80;47.72;;;-3276.30;90.70;;;;;;5055865;28;20094;-71
2022/01/25 03:57:48;;;;;;;95.53;49.17;;;-3276.30;90.80;;;;;;5053131;28;20491;-71
2022/01/25 04:00:14;;;;;;;87.25;47.25;;;-3276.20;90.70;;;;;;5057198;28;20566;-71
2022/01/25 04:02:51;;;;;;;92.03;49.50;;;-3276.20;90.70;;;;;;5057873;28;20024;-70
2022/01/25 04:05:23;;;;;;;92.65;49.35;;;-3276.20;90.70;;;;;;5055526;28;20048;-71
2022/01/25 04:07:50;;;;;;;90.25;48.35;;;-3276.20;90.70;;;;;;5054015;28;20033;-72
2022/01/25 04:10:20;;;;;;;91.78;47.65;;;-3276.20;90.70;;;;;;5056800;28;20456;-71
2022/01/25 04:12:46;;;;;;;98.15;49.00;;;-3276.20;90.70;;;;;;5055088;28;20098;-71
2022/01/25 04:15:12;;;;;;;98.15;48.35;;;-3276.20;90.70;;;;;;5057177;28;20456;-71
2022/01/25 04:17:39;;;;;;;88.13;49.63;;;-3276.20;90.70;;;;;;5054492;28;20065;-72
2022/01/25 04:20:27;;;;;;;91.47;47.85;;;-3276.20;90.70;;;;;;5055206;28;20033;-71
2022/01/25 04:25:37;;;;;;;89.25;48.38;;;-3276.20;90.60;;;;;;5054734;28;20327;-73
2022/01/25 04:28:03;;;;;;;91.28;46.95;;;-3276.20;90.50;;;;;;5051045;28;20029;-71
2022/01/25 04:30:28;;;;;;;90.07;46.88;;;-3276.10;90.60;;;;;;5056560;28;20039;-71
2022/01/25 04:33:01;;;;;;;91.35;48.42;;;-3276.00;90.50;;;;;;5037058;28;20052;-72
2022/01/25 04:35:44;;;;;;;101.30;51.25;;;-3276.10;90.50;;;;;;5051586;28;20101;-72
2022/01/25 04:49:14;;;;;;;98.70;50.30;;;-3276.00;90.60;;;;;;5054302;28;20039;-71
2022/01/25 04:55:05;;;;;;;101.32;51.13;;;-3276.10;90.70;;;;;;5055484;28;20140;-71
2022/01/25 04:59:45;;;;;;;95.38;49.42;;;-3276.10;90.80;;;;;;5055711;28;20071;-71
2022/01/25 05:02:16;;;;;;;97.55;49.85;;;-3276.10;90.80;;;;;;5032498;28;20443;-72
2022/01/25 05:04:54;;;;;;;95.45;47.95;;;-3276.10;90.80;;;;;;5055150;28;20032;-71
2022/01/25 05:09:50;;;;;;;101.70;51.75;;;-3276.00;90.80;;;;;;5055192;28;20399;-72
2022/01/25 05:12:16;;;;;;;97.72;51.70;;;-3276.10;90.90;;;;;;5054348;28;20029;-72
2022/01/25 05:15:07;;;;;;;94.30;51.65;;;-3276.10;91.00;;;;;;5038036;28;20047;-71
2022/01/25 05:17:43;;;;;;;98.28;50.50;;;-3276.10;90.90;;;;;;5050137;28;20674;-71
2022/01/25 05:22:53;;;;;;;105.10;52.10;;;-3276.00;91.00;;;;;;5052897;28;20090;-72
2022/01/25 05:25:19;;;;;;;92.03;49.38;;;-3276.00;90.90;;;;;;5045802;28;20119;-71
2022/01/25 05:27:44;;;;;;;108.25;55.97;;;-3276.00;91.00;;;;;;5047817;28;20497;-72
2022/01/25 05:30:10;;;;;;;98.50;51.08;;;-3276.00;91.00;;;;;;5053881;28;20067;-71
2022/01/25 05:32:36;;;;;;;103.72;56.22;;;-3276.00;91.10;;;;;;5048651;28;20111;-71
2022/01/25 05:35:03;;;;;;;110.60;55.58;;;-3276.00;91.20;;;;;;5046519;28;20408;-73
2022/01/25 05:37:31;;;;;;;108.80;54.22;;;-3276.10;91.30;;;;;;5050489;28;20099;-71
2022/01/25 05:39:59;;;;;;;107.10;54.55;;;-3276.20;91.40;;;;;;5051306;28;20095;-73
2022/01/25 05:47:28;;;;;;;108.05;55.00;;;-3276.20;91.60;;;;;;5049428;28;20539;-72
2022/01/25 05:49:55;;;;;;;111.43;56.72;;;-3276.30;91.60;;;;;;5052980;28;20040;-72
2022/01/25 05:52:20;;;;;;;114.75;56.53;;;-3276.30;91.70;;;;;;5046098;28;20488;-72
2022/01/25 05:54:46;;;;;;;115.93;59.22;;;-3276.30;91.80;;;;;;5045041;28;20051;-73
2022/01/25 05:57:12;;;;;;;130.52;60.00;;;-3276.40;92.00;;;;;;5053653;28;20455;-73
2022/01/25 05:59:38;;;;;;;136.82;62.70;;;-3276.50;92.20;;;;;;5053042;28;20047;-72
2022/01/25 06:02:05;;;;;;;139.98;62.58;;;-3276.50;92.20;;;;;;5049039;28;20087;-72
2022/01/25 06:04:31;;;;;;;134.13;60.30;;;-3276.50;92.20;;;;;;5029908;28;20719;-72
2022/01/25 06:06:57;;;;;;;130.57;60.22;;;-3276.50;92.20;;;;;;5049029;28;20068;-72
2022/01/25 06:09:26;;;;;;;134.48;58.97;;;-3276.50;92.10;;;;;;5048856;28;20147;-72
2022/01/25 06:11:52;;;;;;;128.18;57.92;;;-3276.50;92.10;;;;;;5050738;28;20463;-71
2022/01/25 06:14:18;;;;;;;206.63;61.72;;;-3276.60;92.10;;;;;;5051747;28;20519;-72
2022/01/25 06:16:44;;;;;;;199.18;60.10;;;-3276.60;92.20;;;;;;5049559;28;20455;-71
2022/01/25 06:19:09;;;;;;;147.07;55.97;;;-3276.60;92.10;;;;;;5049677;28;20036;-72
2022/01/25 06:21:35;;;;;;;121.10;50.55;;;-3276.50;92.10;;;;;;5052160;28;20060;-71
2022/01/25 06:24:01;;;;;;;108.60;53.55;;;-3276.60;92.00;;;;;;5050673;28;20079;-71
2022/01/25 06:26:27;;;;;;;111.65;54.00;;;-3276.50;92.00;;;;;;5059946;28;20036;-71
2022/01/25 06:28:52;;;;;;;248.40;59.80;;;-3276.60;92.20;;;;;;5055066;28;20349;-72
2022/01/25 06:31:18;;;;;;;239.95;63.05;;;-3276.60;92.10;;;;;;5053615;28;20062;-72
2022/01/25 06:33:46;;;;;;;220.90;58.22;;;-3276.50;92.40;;;;;;5051769;28;20606;-72
2022/01/25 06:36:12;;;;;;;175.80;58.53;;;-3276.50;92.60;;;;;;5032760;28;20429;-71
2022/01/25 06:38:38;;;;;;;180.95;62.63;;;-3276.50;92.90;;;;;;5050713;28;20456;-71
2022/01/25 06:41:04;;;;;;;161.98;57.60;;;-3276.50;93.10;;;;;;5053759;28;20044;-71
2022/01/25 06:43:29;;;;;;;117.05;56.95;;;-3276.50;93.30;;;;;;5049912;28;20044;-71
2022/01/25 06:46:01;;;;;;;146.68;59.67;;;-3276.60;93.40;;;;;;5052880;28;20561;-72
2022/01/25 06:48:27;;;;;;;140.75;59.03;;;-3276.70;93.40;;;;;;5054493;28;20040;-71
2022/01/25 06:50:53;;;;;;;146.77;58.08;;;0.00;93.40;;;;;;5053252;28;20041;-72
2022/01/25 06:53:18;;;;;;;157.95;61.63;;;0.00;93.50;;;;;;5052611;28;20031;-72
2022/01/25 06:55:44;;;;;;;154.88;60.78;;;0.00;93.50;;;;;;5027799;28;20467;-71
2022/01/25 06:58:10;;;;;;;217.95;67.57;;;0.00;93.50;;;;;;5033947;28;20555;-72
2022/01/25 07:00:36;;;;;;;189.07;60.10;;;0.10;93.50;;;;;;5038198;28;20368;-72
2022/01/25 07:03:03;;;;;;;119.63;56.05;;;0.00;93.50;;;;;;5044626;28;20282;-72
2022/01/25 07:05:29;;;;;;;144.13;56.00;;;0.10;93.60;;;;;;5034934;28;20094;-72
2022/01/25 07:07:55;;;;;;;173.60;60.10;;;0.10;93.60;;;;;;5041857;28;20037;-72
2022/01/25 07:10:21;;;;;;;154.27;57.78;;;0.10;93.60;;;;;;5037982;28;20533;-73
2022/01/25 07:12:47;;;;;;;115.63;54.38;;;0.10;93.60;;;;;;5037964;28;20025;-69
2022/01/25 07:15:13;;;;;;;161.50;54.03;;;0.10;93.70;;;;;;5038568;28;20048;-70
2022/01/25 07:17:39;;;;;;;140.90;55.83;;;0.20;93.70;;;;;;5036132;28;20032;-70
2022/01/25 07:20:06;;;;;;;200.00;56.38;;;0.20;93.60;;;;;;5030533;28;20487;-69
2022/01/25 07:22:33;;;;;;;157.55;55.38;;;0.10;93.70;;;;;;5041656;28;20090;-70
2022/01/25 07:24:59;;;;;;;174.50;58.45;;;0.10;93.80;;;;;;5033071;28;20423;-69
2022/01/25 07:27:25;;;;;;;128.18;52.67;;;0.10;93.80;;;;;;5031771;28;20285;-71
2022/01/25 07:29:51;;;;;;;142.98;52.45;;;0.20;93.90;;;;;;5037262;28;20028;-69
2022/01/25 07:32:17;;;;;;;117.93;49.63;;;0.20;93.90;;;;;;5035639;28;20472;-70
2022/01/25 07:34:42;;;;;;;113.60;47.85;;;0.30;94.00;;;;;;5037400;28;20087;-69
2022/01/25 07:37:08;;;;;;;108.60;44.47;;;0.30;94.00;;;;;;5036105;28;20033;-68
2022/01/25 07:39:34;;;;;;;106.40;46.88;;;0.40;94.00;;;;;;5037457;28;20032;-68
2022/01/25 07:42:00;;;;;;;97.07;42.97;;;0.40;93.90;;;;;;5032131;28;20053;-69
2022/01/25 07:44:32;;;;;;;193.82;46.95;;;0.40;93.90;;;;;;5032518;28;20041;-70
2022/01/25 07:47:00;;;;;;;105.18;41.58;;;0.40;94.00;;;;;;5034260;28;20086;-70
2022/01/25 07:49:26;;;;;;;93.65;41.47;;;0.40;93.90;;;;;;5027341;28;20049;-70
2022/01/25 07:51:53;;;;;;;100.28;40.70;;;0.40;93.90;;;;;;5035477;28;20326;-69
2022/01/25 07:54:19;;;;;;;135.07;45.00;;;0.50;94.00;;;;;;5043554;28;20053;-70
2022/01/25 07:56:44;;;;;;;131.68;39.85;;;0.50;94.00;;;;;;5056561;28;20037;-69
2022/01/25 07:59:10;;;;;;;177.45;42.42;;;0.50;94.00;;;;;;5058574;28;20044;-69
2022/01/25 08:01:36;;;;;;;139.85;40.80;;;0.60;94.00;;;;;;5038766;28;20364;-69
2022/01/25 08:04:02;;;;;;;121.95;41.10;;;0.60;94.00;;;;;;5054465;28;20115;-69
2022/01/25 08:06:28;;;;;;;116.40;40.72;;;0.60;93.90;;;;;;5049319;28;20439;-70
2022/01/25 08:08:54;;;;;;;177.02;50.53;;;0.60;94.00;;;;;;5056960;28;20041;-69
2022/01/25 08:11:20;;;;;;;113.60;42.60;;;0.70;94.00;;;;;;5054504;28;20024;-69
2022/01/25 08:13:50;;;;;;;190.35;43.50;;;0.70;94.10;;;;;;5053606;28;20055;-70
2022/01/25 08:16:17;;;;;;;101.22;37.58;;;0.80;94.10;;;;;;5053300;28;20124;-70
2022/01/25 08:18:43;;;;;;;111.43;37.92;;;0.90;94.10;;;;;;5063770;28;20379;-68
2022/01/25 08:21:09;;;;;;;116.63;39.45;;;0.90;94.10;;;;;;5072160;28;20040;-68
2022/01/25 08:23:35;;;;;;;109.18;40.47;;;0.90;94.10;;;;;;5058865;28;20059;-70
2022/01/25 08:26:02;;;;;;;114.20;42.30;;;1.00;94.10;;;;;;5054514;28;20032;-69
2022/01/25 08:28:28;;;;;;;130.35;49.42;;;1.10;94.10;;;;;;5054187;28;20037;-70
2022/01/25 08:30:53;;;;;;;103.97;41.90;;;1.10;94.00;;;;;;5055769;28;20191;-69
2022/01/25 08:33:19;;;;;;;159.10;49.08;;;1.10;94.00;;;;;;5055560;28;20059;-70
2022/01/25 08:35:45;;;;;;;160.70;44.40;;;1.10;94.00;;;;;;5033803;28;20139;-69
2022/01/25 08:38:11;;;;;;;121.65;41.28;;;1.20;94.00;;;;;;5055533;28;20042;-70
2022/01/25 08:40:37;;;;;;;142.27;45.33;;;1.20;94.00;;;;;;5057715;28;20440;-70
2022/01/25 08:43:03;;;;;;;160.68;47.53;;;1.20;94.00;;;;;;5056736;28;20113;-69
2022/01/25 08:45:29;;;;;;;137.48;49.08;;;1.30;94.00;;;;;;5057249;28;20061;-70
2022/01/25 08:47:55;;;;;;;138.23;47.00;;;1.30;94.00;;;;;;5056446;28;20033;-71
2022/01/25 08:50:21;;;;;;;122.88;45.28;;;1.40;94.00;;;;;;5056923;28;20043;-69
2022/01/25 08:52:47;;;;;;;124.30;44.55;;;1.40;93.90;;;;;;5055663;28;20479;-69
2022/01/25 08:55:14;;;;;;;126.22;41.83;;;1.50;93.90;;;;;;5056311;28;20091;-69
2022/01/25 08:57:39;;;;;;;121.28;40.47;;;1.50;94.00;;;;;;5043610;28;20037;-69
2022/01/25 09:00:09;;;;;;;127.57;43.42;;;1.60;93.80;;;;;;5056239;28;20032;-70
2022/01/25 09:02:34;;;;;;;143.68;46.25;;;1.60;93.80;;;;;;5056791;28;20105;-69
2022/01/25 09:05:00;;;;;;;135.80;44.70;;;1.60;93.80;;;;;;5055849;28;20044;-69
2022/01/25 09:07:26;;;;;;;166.00;49.40;;;1.60;93.80;;;;;;5056391;28;20024;-69
2022/01/25 09:09:51;;;;;;;123.90;44.20;;;1.70;93.70;;;;;;5056911;28;20029;-68
2022/01/25 09:12:17;;;;;;;135.35;44.85;;;1.70;93.70;;;;;;5056594;28;20024;-68
2022/01/25 09:14:43;;;;;;;134.13;44.13;;;1.70;93.70;;;;;;5056355;28;20566;-70
2022/01/25 09:17:10;;;;;;;127.07;44.45;;;1.80;93.60;;;;;;5055587;28;20037;-69
2022/01/25 09:19:38;;;;;;;133.38;44.55;;;1.80;93.60;;;;;;5057474;28;20024;-68
2022/01/25 09:22:05;;;;;;;141.45;47.75;;;1.80;93.50;;;;;;5040139;28;20395;-69
2022/01/25 09:24:31;;;;;;;157.90;59.60;;;1.90;93.60;;;;;;5052152;28;20448;-69
2022/01/25 09:26:57;;;;;;;142.63;50.85;;;1.90;93.50;;;;;;5055881;28;20037;-69
2022/01/25 09:29:22;;;;;;;153.65;50.72;;;1.90;93.50;;;;;;5056588;28;20460;-68
2022/01/25 09:31:49;;;;;;;141.73;49.80;;;1.90;93.40;;;;;;5056126;28;20025;-70
2022/01/25 09:34:15;;;;;;;146.25;51.05;;;2.00;93.50;;;;;;5058356;28;20114;-69
2022/01/25 09:36:41;;;;;;;156.15;55.13;;;2.10;93.40;;;;;;5056499;28;20122;-70
2022/01/25 09:39:07;;;;;;;141.82;51.30;;;2.10;93.40;;;;;;5051328;28;20650;-69
2022/01/25 09:41:33;;;;;;;149.27;50.75;;;2.20;93.30;;;;;;5056779;28;20058;-69
2022/01/25 09:43:59;;;;;;;139.13;50.25;;;2.20;93.30;;;;;;5050103;28;20067;-70
2022/01/25 09:46:24;;;;;;;162.52;56.08;;;2.20;93.10;;;;;;5055967;28;20117;-70
2022/01/25 09:48:51;;;;;;;150.73;51.65;;;2.30;93.20;;;;;;5056872;28;20036;-69
2022/01/25 09:51:22;;;;;;;141.38;47.40;;;2.30;93.10;;;;;;5053241;28;20411;-70
2022/01/25 09:53:48;;;;;;;147.43;51.10;;;2.30;93.10;;;;;;5049267;28;20486;-70
2022/01/25 09:56:14;;;;;;;138.60;46.97;;;2.40;93.00;;;;;;5053069;28;20028;-69
2022/01/25 09:58:39;;;;;;;140.40;46.17;;;2.40;93.00;;;;;;5037635;28;20039;-70
2022/01/25 10:01:07;;;;;;;143.00;50.25;;;2.40;92.90;;;;;;5055278;28;20071;-69
2022/01/25 10:03:39;;;;;;;141.63;49.95;;;2.50;92.90;;;;;;5055202;28;20082;-69
2022/01/25 10:06:15;;;;;;;139.27;54.17;;;2.60;92.90;;;;;;5055788;28;20202;-69
2022/01/25 10:08:42;;;;;;;124.45;50.75;;;2.50;92.70;;;;;;5056032;28;20029;-69
2022/01/25 10:11:10;;;;;;;137.35;55.40;;;2.60;92.70;;;;;;5061300;28;20071;-69
2022/01/25 10:13:44;;;;;;;123.20;49.25;;;2.60;92.70;;;;;;5056641;28;20290;-69
2022/01/25 10:16:13;;;;;;;123.93;52.40;;;2.70;92.70;;;;;;5036732;28;20045;-68
2022/01/25 10:18:50;;;;;;;124.40;50.63;;;2.70;92.60;;;;;;5050302;28;20468;-69
2022/01/25 10:21:25;;;;;;;136.73;51.15;;;2.70;92.20;;;;;;5052159;28;20044;-69
2022/01/25 10:24:03;;;;;;;118.22;47.75;;;2.60;92.00;;;;;;5050597;28;20036;-70
2022/01/25 10:26:59;;;;;;;114.72;48.25;;;2.60;92.10;;;;;;5056351;28;20052;-69
2022/01/25 10:29:31;;;;;;;123.75;51.10;;;2.70;92.20;;;;;;5049069;28;20534;-69
2022/01/25 10:32:09;;;;;;;127.68;48.75;;;2.60;91.90;;;;;;5039310;28;20391;-68
2022/01/25 10:34:43;;;;;;;140.10;55.60;;;2.60;92.10;;;;;;5050229;28;20037;-70
2022/01/25 10:37:15;;;;;;;131.95;50.45;;;2.70;92.10;;;;;;5058826;28;20037;-70
2022/01/25 10:39:43;;;;;;;135.50;50.33;;;2.60;91.90;;;;;;5054807;28;20036;-70
2022/01/25 10:42:29;;;;;;;139.40;55.03;;;2.60;91.90;;;;;;5055073;28;20048;-71
2022/01/25 10:45:10;;;;;;;124.38;51.72;;;2.60;92.10;;;;;;5061688;28;20052;-70
2022/01/25 10:47:38;;;;;;;133.07;54.95;;;2.70;92.10;;;;;;5059538;28;20040;-70
2022/01/25 10:50:18;;;;;;;128.75;53.60;;;2.70;92.00;;;;;;5053946;28;20045;-70
2022/01/25 10:52:45;;;;;;;136.77;53.08;;;2.80;92.00;;;;;;5059271;28;20029;-70
2022/01/25 10:55:13;;;;;;;135.32;55.83;;;2.70;91.60;;;;;;5056533;28;20146;-69
2022/01/25 10:57:39;;;;;;;126.05;51.45;;;2.70;91.70;;;;;;5044073;28;20545;-72
2022/01/25 11:00:09;;;;;;;135.27;54.88;;;2.70;91.70;;;;;;5052606;28;20119;-72
2022/01/25 11:02:35;;;;;;;139.77;58.80;;;2.70;91.50;;;;;;5050741;28;20060;-70
2022/01/25 11:05:09;;;;;;;136.32;55.03;;;2.70;91.50;;;;;;5049389;28;20037;-71
2022/01/25 11:07:45;;;;;;;137.73;55.60;;;2.80;91.70;;;;;;5038076;28;20044;-70
2022/01/25 11:10:18;;;;;;;131.80;54.53;;;2.80;91.60;;;;;;5050821;28;20036;-70
2022/01/25 11:15:39;;;;;;;133.98;55.50;;;2.90;91.70;;;;;;5027371;28;20036;-70
2022/01/25 11:18:05;;;;;;;140.63;58.88;;;2.90;91.70;;;;;;5048707;28;20039;-69
2022/01/25 11:20:33;;;;;;;135.27;57.55;;;2.90;91.50;;;;;;5052580;28;20135;-70
2022/01/25 11:23:00;;;;;;;135.27;56.42;;;2.80;91.10;;;;;;5049637;28;20743;-71
2022/01/25 11:25:26;;;;;;;122.47;55.17;;;2.70;91.10;;;;;;5049959;28;20029;-69
2022/01/25 11:27:56;;;;;;;129.93;54.95;;;2.70;91.20;;;;;;5050353;28;20032;-69
2022/01/25 11:30:22;;;;;;;128.38;55.17;;;2.60;91.40;;;;;;5050198;28;20468;-71
2022/01/25 11:32:50;;;;;;;135.45;58.42;;;2.70;91.60;;;;;;5044075;28;20245;-70
2022/01/25 11:35:20;;;;;;;125.47;57.78;;;2.80;91.80;;;;;;5047896;28;20537;-70
2022/01/25 11:37:48;;;;;;;140.82;59.40;;;3.00;91.70;;;;;;5050561;28;20028;-71
2022/01/25 11:40:38;;;;;;;136.40;59.55;;;3.00;91.60;;;;;;5050993;28;20385;-70
2022/01/25 11:43:09;;;;;;;133.90;56.13;;;2.90;91.10;;;;;;5044401;28;20039;-70
2022/01/25 11:45:38;;;;;;;129.20;59.67;;;2.90;91.20;;;;;;5049973;28;20538;-71
2022/01/25 11:48:04;;;;;;;125.50;59.10;;;2.90;91.20;;;;;;5050198;28;20036;-70
2022/01/25 11:50:36;;;;;;;137.07;59.60;;;2.90;91.10;;;;;;5049296;28;20041;-71
2022/01/25 11:53:07;;;;;;;132.40;58.45;;;3.10;91.20;;;;;;5051174;28;20063;-71
2022/01/25 11:55:35;;;;;;;133.93;58.25;;;3.00;90.90;;;;;;5050680;28;20048;-72
2022/01/25 11:58:08;;;;;;;135.32;57.67;;;3.20;91.20;;;;;;5049279;28;20443;-69
2022/01/25 12:00:36;;;;;;;130.50;58.33;;;3.30;91.20;;;;;;5048690;28;20633;-71
2022/01/25 12:03:18;;;;;;;121.57;56.85;;;3.40;90.80;;;;;;5049232;28;20040;-71
2022/01/25 12:06:17;;;;;;;132.25;58.13;;;3.40;90.50;;;;;;5047283;28;20037;-72
2022/01/25 12:11:38;;;;;;;115.68;55.17;;;3.40;90.10;;;;;;5049061;28;20032;-70
2022/01/25 12:14:14;;;;;;;128.75;58.88;;;3.50;90.10;;;;;;5044549;28;20959;-68
2022/01/25 12:16:44;;;;;;;118.85;56.85;;;3.60;89.90;;;;;;5051035;28;20089;-71
2022/01/25 12:19:13;;;;;;;119.47;56.88;;;3.50;89.40;;;;;;5048275;28;20304;-69
2022/01/25 12:21:52;;;;;;;121.07;58.35;;;3.40;89.40;;;;;;5051283;28;20724;-70
2022/01/25 12:24:32;;;;;;;120.47;59.20;;;3.40;89.50;;;;;;5048262;28;20313;-69
2022/01/25 12:29:38;;;;;;;122.63;58.03;;;3.40;89.50;;;;;;5047110;28;20040;-70
2022/01/25 12:32:26;;;;;;;119.75;58.55;;;3.40;89.30;;;;;;5048566;28;20025;-71
2022/01/25 12:35:00;;;;;;;124.40;59.20;;;3.50;89.70;;;;;;5047338;28;20419;-69
2022/01/25 12:37:44;;;;;;;117.63;60.95;;;3.50;89.40;;;;;;5030407;28;21596;-71
2022/01/25 12:40:30;;;;;;;117.43;57.15;;;3.40;89.30;;;;;;5040783;28;20070;-69
2022/01/25 12:42:59;;;;;;;119.05;56.30;;;3.50;89.80;;;;;;5049011;28;20071;-72
2022/01/25 12:45:30;;;;;;;120.70;58.15;;;3.60;89.80;;;;;;5046375;28;20697;-70
2022/01/25 12:48:12;;;;;;;136.73;65.47;;;3.70;89.90;;;;;;5054374;28;20040;-68
2022/01/25 12:50:40;;;;;;;122.38;58.85;;;3.80;89.70;;;;;;5058599;28;20468;-68
2022/01/25 12:53:08;;;;;;;115.85;56.90;;;3.90;89.70;;;;;;5056558;28;20034;-70
2022/01/25 12:55:40;;;;;;;125.65;59.88;;;3.90;88.90;;;;;;5056686;28;20042;-69
2022/01/25 12:58:06;;;;;;;122.50;62.15;;;3.90;88.40;;;;;;5053906;28;20040;-70
2022/01/25 13:00:40;;;;;;;122.38;59.88;;;3.70;88.20;;;;;;5048849;28;20115;-70
2022/01/25 13:03:23;;;;;;;113.13;57.75;;;3.80;88.80;;;;;;5053554;28;20086;-69
2022/01/25 13:06:06;;;;;;;120.15;60.40;;;3.90;88.90;;;;;;5054792;28;20143;-71
2022/01/25 13:08:55;;;;;;;114.07;56.58;;;4.00;88.60;;;;;;5057077;28;20077;-70
2022/01/25 13:12:09;;;;;;;116.50;55.83;;;4.00;88.60;;;;;;5053528;28;20033;-70
2022/01/25 13:14:49;;;;;;;111.10;57.20;;;4.10;88.80;;;;;;5056900;28;20040;-71
2022/01/25 13:17:25;;;;;;;112.18;54.13;;;4.20;88.40;;;;;;5056518;28;20146;-69
2022/01/25 13:20:03;;;;;;;112.18;57.55;;;4.10;87.80;;;;;;5058523;28;20075;-68
2022/01/25 13:22:39;;;;;;;113.40;56.50;;;4.10;88.20;;;;;;5055783;28;20182;-69
2022/01/25 13:25:31;;;;;;;114.72;57.88;;;4.10;87.80;;;;;;5057224;28;20048;-70
2022/01/25 13:28:01;;;;;;;120.97;61.58;;;3.90;87.40;;;;;;5053353;28;20086;-70
2022/01/25 13:30:48;;;;;;;119.35;61.72;;;3.90;87.70;;;;;;5052344;28;20028;-71
2022/01/25 13:33:20;;;;;;;120.57;58.85;;;3.80;87.60;;;;;;5053721;28;20025;-71
2022/01/25 13:35:53;;;;;;;123.40;58.63;;;3.80;87.80;;;;;;5055972;28;20139;-71
2022/01/25 13:38:20;;;;;;;119.03;59.83;;;3.70;87.90;;;;;;5040787;28;20411;-72
2022/01/25 13:41:00;;;;;;;116.85;61.33;;;3.80;88.10;;;;;;5049950;28;20530;-72
2022/01/25 13:45:42;;;;;;;126.03;60.78;;;3.90;88.30;;;;;;5055692;28;20055;-70
2022/01/25 13:46:19;;;;;;;123.20;61.70;;;3.90;87.60;;;;;;5053068;28;20112;-70
2022/01/25 13:48:46;;;;;;;127.25;60.05;;;3.90;87.20;;;;;;5051312;28;20322;-70
2022/01/25 13:51:18;;;;;;;125.45;61.92;;;3.90;87.00;;;;;;5053284;28;20036;-71
2022/01/25 13:53:51;;;;;;;118.32;59.70;;;4.00;86.70;;;;;;5048761;28;20705;-71
2022/01/25 13:56:17;;;;;;;124.57;63.03;;;4.00;86.70;;;;;;5054498;28;20139;-70
2022/01/25 13:58:46;;;;;;;120.20;58.95;;;4.10;86.50;;;;;;5057809;28;20041;-70
2022/01/25 14:01:15;;;;;;;130.30;67.72;;;4.00;86.40;;;;;;5056299;28;20036;-70
2022/01/25 14:04:03;;;;;;;115.88;60.42;;;4.10;86.70;;;;;;5056783;28;20145;-71
2022/01/25 14:06:38;;;;;;;121.28;59.40;;;4.10;86.20;;;;;;5037297;28;20064;-70
2022/01/25 14:09:13;;;;;;;118.25;59.45;;;4.10;86.10;;;;;;5039422;28;20032;-71
2022/01/25 14:25:39;;;;;;;115.38;60.08;;;4.20;86.20;;;;;;5052990;28;20130;-72